D/T METAR WX W/DIR W/SPE G/SPE TEMP DEWP
23/05/19 12:50 EGVO 231150Z 17006KT 9999 FEW045 BKN200 20/08 Q1016 BLU NOSIG S (170°) 6.9mph 20°C 8°C
23/05/19 11:50 EGVO 231050Z 14005KT CAVOK 20/08 Q1016 BLU NOSIG SE (140°) 5.8mph 20°C 8°C
23/05/19 10:50 EGVO 230950Z 16004KT CAVOK 19/07 Q1017 BLU NOSIG SSE (160°) 4.6mph 19°C 7°C
23/05/19 09:50 EGVO 230850Z 25003KT CAVOK 17/07 Q1017 BLU NOSIG WSW (250°) 3.5mph 17°C 7°C
23/05/19 08:50 EGVO 230750Z 14001KT CAVOK 16/08 Q1017 BLU NOSIG SE (140°) 1.2mph 16°C 8°C
23/05/19 07:50 EGVO 230650Z 20003KT CAVOK 13/07 Q1017 BLU NOSIG SSW (200°) 3.5mph 13°C 7°C
23/05/19 06:50 EGVO 230550Z 19001KT CAVOK 11/07 Q1017 BLU S (190°) 1.2mph 11°C 7°C
23/05/19 05:50 EGVO 230450Z 20003KT CAVOK 08/06 Q1017 BLU SSW (200°) 3.5mph 8°C 6°C
23/05/19 04:50 EGVO 230350Z 02001KT CAVOK 08/05 Q1017 BLU NNE (20°) 1.2mph 8°C 5°C
23/05/19 03:50 EGVO 230250Z AUTO 26003KT 9999 FEW190/// 10/06 Q1017 W (260°) 3.5mph 10°C 6°C
23/05/19 02:50 EGVO 230150Z AUTO 25004KT 9999 FEW210/// 10/06 Q1018 WSW (250°) 4.6mph 10°C 6°C
23/05/19 01:50 EGVO 230050Z 23008KT CAVOK 11/06 Q1018 BLU SW (230°) 9.2mph 11°C 6°C
23/05/19 00:50 EGVO 222350Z 22007KT CAVOK 10/05 Q1018 BLU SW (220°) 8.1mph 10°C 5°C
22/05/19 23:50 EGVO 222250Z 20005KT CAVOK 11/05 Q1018 BLU NOSIG SSW (200°) 5.8mph 11°C 5°C
22/05/19 22:50 EGVO 222150Z 22007KT CAVOK 12/05 Q1018 BLU SW (220°) 8.1mph 12°C 5°C
22/05/19 21:50 EGVO 222050Z 21005KT CAVOK 12/04 Q1018 BLU NOSIG SSW (210°) 5.8mph 12°C 4°C
22/05/19 20:50 EGVO 221950Z 20007KT CAVOK 13/02 Q1018 BLU NOSIG SSW (200°) 8.1mph 13°C 2°C
22/05/19 19:50 EGVO 221850Z 19008KT CAVOK 16/03 Q1018 BLU NOSIG S (190°) 9.2mph 16°C 3°C
22/05/19 18:50 EGVO 221750Z 18010KT CAVOK 18/04 Q1018 BLU NOSIG S (180°) 11.5mph 18°C 4°C
22/05/19 17:50 EGVO 221650Z 19010KT CAVOK 18/05 Q1018 BLU NOSIG S (190°) 11.5mph 18°C 5°C
22/05/19 16:50 EGVO 221550Z AUTO 20011KT 9999 FEW060/// BKN130/// 19/07 Q1019 SSW (200°) 12.7mph 19°C 7°C
22/05/19 15:50 EGVO 221450Z 18008KT CAVOK 19/08 Q1019 BLU NOSIG S (180°) 9.2mph 19°C 8°C
22/05/19 14:50 EGVO 221350Z 20010KT CAVOK 19/07 Q1019 BLU NOSIG SSW (200°) 11.5mph 19°C 7°C
22/05/19 13:50 EGVO 221250Z 21008KT CAVOK 18/05 Q1020 BLU NOSIG SSW (210°) 9.2mph 18°C 5°C
22/05/19 12:50 EGVO 221150Z 21009KT CAVOK 18/05 Q1020 BLU NOSIG SSW (210°) 10.4mph 18°C 5°C
22/05/19 11:50 EGVO 221050Z 22006KT CAVOK 18/04 Q1020 BLU NOSIG SW (220°) 6.9mph 18°C 4°C
22/05/19 10:50 EGVO 220950Z 15005KT CAVOK 17/04 Q1020 BLU NOSIG SSE (150°) 5.8mph 17°C 4°C
22/05/19 09:50 EGVO 220850Z AUTO 14004KT 9999 NCD 16/06 Q1020 SE (140°) 4.6mph 16°C 6°C
22/05/19 08:50 EGVO 220750Z AUTO 06003KT 9999 FEW180/// 14/05 Q1020 ENE (60°) 3.5mph 14°C 5°C
22/05/19 07:50 EGVO 220650Z AUTO 19001KT 9999 SCT160/// 11/06 Q1020 S (190°) 1.2mph 11°C 6°C
22/05/19 06:50 EGVO 220550Z 24001KT CAVOK 09/06 Q1020 BLU NOSIG WSW (240°) 1.2mph 9°C 6°C
22/05/19 05:50 EGVO 220450Z 25002KT CAVOK 08/06 Q1020 BLU WSW (250°) 2.3mph 8°C 6°C
22/05/19 04:50 EGVO 220350Z 25001KT CAVOK 08/05 Q1020 BLU WSW (250°) 1.2mph 8°C 5°C
22/05/19 03:50 EGVO 220250Z 28002KT CAVOK 09/05 Q1020 BLU W (280°) 2.3mph 9°C 5°C
22/05/19 02:50 EGVO 220150Z 24002KT CAVOK 09/06 Q1020 BLU WSW (240°) 2.3mph 9°C 6°C
22/05/19 01:50 EGVO 220050Z 24003KT CAVOK 10/06 Q1020 BLU WSW (240°) 3.5mph 10°C 6°C
22/05/19 00:50 EGVO 212350Z 30004KT CAVOK 11/06 Q1020 BLU WNW (300°) 4.6mph 11°C 6°C
21/05/19 23:50 EGVO 212250Z AUTO 23002KT 9999 NCD 10/06 Q1020 SW (230°) 2.3mph 10°C 6°C
21/05/19 22:50 EGVO 212150Z 24003KT CAVOK 12/06 Q1019 BLU NOSIG WSW (240°) 3.5mph 12°C 6°C
21/05/19 21:50 EGVO 212050Z 27003KT CAVOK 14/05 Q1019 BLU NOSIG W (270°) 3.5mph 14°C 5°C
21/05/19 20:50 EGVO 211950Z 32004KT CAVOK 16/06 Q1019 BLU NOSIG NW (320°) 4.6mph 16°C 6°C
21/05/19 19:50 EGVO 211850Z 31006KT CAVOK 17/06 Q1019 BLU NOSIG NW (310°) 6.9mph 17°C 6°C
21/05/19 18:50 EGVO 211750Z 30007KT CAVOK 19/05 Q1019 BLU NOSIG WNW (300°) 8.1mph 19°C 5°C
21/05/19 17:50 EGVO 211650Z 32009KT CAVOK 19/05 Q1018 BLU NOSIG NW (320°) 10.4mph 19°C 5°C
21/05/19 16:50 EGVO 211550Z 30007KT CAVOK 18/05 Q1018 BLU NOSIG WNW (300°) 8.1mph 18°C 5°C
21/05/19 15:50 EGVO 211450Z 30008KT CAVOK 18/05 Q1018 BLU NOSIG WNW (300°) 9.2mph 18°C 5°C
21/05/19 14:50 EGVO 211350Z 33008KT CAVOK 19/07 Q1018 BLU NOSIG NNW (330°) 9.2mph 19°C 7°C
21/05/19 13:50 EGVO 211250Z 33007KT CAVOK 18/06 Q1018 BLU NOSIG NNW (330°) 8.1mph 18°C 6°C